Sterling Muni, Sterling, CO, CO

10:49 PM MST on January 20, 2018 (GMT -0700)
Sterling Municipal

Weather History for KSTK - December, 2013

Change the Weather History Date:

Tuesday, December 3, 2013

  Actual Average Record
Temperature  
Mean Temperature 34 °F -  
Max Temperature 50 °F 44 °F 53 °F (2015)
Min Temperature 15 °F 16 °F 14 °F (2016)
Degree Days  
Heating Degree Days 32    
Moisture  
Dew Point 21 °F    
Average Humidity 68    
Maximum Humidity 80    
Minimum Humidity 37    
Precipitation  
Precipitation 0.00 in - - ()
Sea Level Pressure  
Sea Level Pressure 29.61 in    
Wind  
Wind Speed 11 mph (NNW)    
Max Wind Speed 28 mph    
Max Gust Speed 36 mph    
Visibility 10 miles    
Events Snow    
Averages and records for this station are not official NWS values.
T = Trace of Precipitation, MM = Missing Value Source: NWS Daily Summary

Daily Weather History Graph

Daily Weather History Graph

Search for Another Location

Airport or City:

Trip Planner

Search our weather history database for the weather conditions in past years. The results will help you decide how hot, cold, wet, or windy it might be!

Date:

Astronomy

Dec. 03, 2013 Rise Set
Actual Time 6:59 AM MST 4:26 PM MST
Civil Twilight 6:29 AM MST 4:56 PM MST
Nautical Twilight 5:55 AM MST 5:30 PM MST
Astronomical Twilight 5:22 AM MST 6:03 PM MST
Moon 7:31 AM MST (12/3) 5:32 PM MST (12/3)
Length of Visible Light 10h 27m
Length of Day
9h 26m
New Moon, 1% of the Moon is Illuminated
Dec 3
New Moon
Dec 9
First Quarter
Dec 17
Full
Dec 25
Last Quarter
Jan 1
New

Hourly Weather History & Observations

Time (MST) Temp. Windchill Dew Point Humidity Pressure Visibility Wind Dir Wind Speed Gust Speed Precip Events Conditions
12:10 AM 50.0 °F - 24.8 °F 37% 29.54 in 10.0 mi WSW 3.5 mph - N/A   Mostly Cloudy
12:30 AM 44.6 °F 40.2 °F 26.6 °F 49% 29.54 in 10.0 mi SSW 8.1 mph - N/A   Mostly Cloudy
12:50 AM 41.0 °F 36.4 °F 26.6 °F 57% 29.54 in 10.0 mi SSW 6.9 mph - N/A   Scattered Clouds
1:10 AM 41.0 °F 36.4 °F 28.4 °F 61% 29.55 in 10.0 mi SW 6.9 mph - N/A   Mostly Cloudy
1:30 AM 39.2 °F 33.6 °F 26.6 °F 61% 29.55 in 10.0 mi WSW 8.1 mph - N/A   Mostly Cloudy
1:50 AM 37.4 °F 31.4 °F 26.6 °F 65% 29.55 in 10.0 mi WSW 8.1 mph - N/A   Mostly Cloudy
2:10 AM 37.4 °F 30.8 °F 26.6 °F 65% 29.55 in 10.0 mi West 9.2 mph - N/A   Mostly Cloudy
2:30 AM 39.2 °F 33.0 °F 26.6 °F 61% 29.54 in 10.0 mi WSW 9.2 mph - N/A   Overcast
2:50 AM 37.4 °F 33.8 °F 26.6 °F 65% 29.53 in 10.0 mi SW 4.6 mph - N/A   Scattered Clouds
3:10 AM 35.6 °F 30.7 °F 26.6 °F 70% 29.54 in 10.0 mi SW 5.8 mph - N/A   Scattered Clouds
3:30 AM 33.8 °F 27.0 °F 26.6 °F 75% 29.54 in 10.0 mi West 8.1 mph - N/A   Mostly Cloudy
3:50 AM 37.4 °F 33.8 °F 26.6 °F 65% 29.54 in 10.0 mi SSW 4.6 mph - N/A   Overcast
4:10 AM 32.0 °F 25.6 °F 24.8 °F 75% 29.52 in 10.0 mi South 6.9 mph - N/A   Mostly Cloudy
4:30 AM 32.0 °F 24.2 °F 24.8 °F 75% 29.50 in 10.0 mi South 9.2 mph - N/A   Scattered Clouds
4:50 AM 32.0 °F 24.8 °F 24.8 °F 75% 29.50 in 10.0 mi SSW 8.1 mph - N/A   Scattered Clouds
5:10 AM 30.2 °F 22.6 °F 23.0 °F 75% 29.50 in 10.0 mi SW 8.1 mph - N/A   Scattered Clouds
5:30 AM 30.2 °F 22.6 °F 23.0 °F 75% 29.49 in 10.0 mi SW 8.1 mph - N/A   Scattered Clouds
5:50 AM 30.2 °F 22.6 °F 23.0 °F 75% 29.49 in 10.0 mi SW 8.1 mph - N/A   Clear
6:10 AM 32.0 °F 24.8 °F 24.8 °F 75% 29.49 in 10.0 mi WSW 8.1 mph - N/A   Clear
6:30 AM 32.0 °F 25.6 °F 23.0 °F 69% 29.50 in 10.0 mi SW 6.9 mph - N/A   Clear
6:50 AM 32.0 °F 28.7 °F 24.8 °F 75% 29.50 in 10.0 mi SSW 3.5 mph - N/A   Clear
7:10 AM 33.8 °F 29.6 °F 24.8 °F 70% 29.50 in 10.0 mi South 4.6 mph - N/A   Scattered Clouds
7:30 AM 32.0 °F 26.4 °F 26.6 °F 80% 29.49 in 10.0 mi South 5.8 mph - N/A   Mostly Cloudy
7:50 AM 33.8 °F 30.8 °F 26.6 °F 75% 29.49 in 10.0 mi SSW 3.5 mph - N/A   Mostly Cloudy
8:10 AM 35.6 °F 32.8 °F 26.6 °F 70% 29.50 in 10.0 mi SSW 3.5 mph - N/A   Mostly Cloudy
8:30 AM 37.4 °F 34.9 °F 26.6 °F 65% 29.50 in 10.0 mi SSW 3.5 mph - N/A   Mostly Cloudy
8:50 AM 41.0 °F 37.1 °F 28.4 °F 61% 29.49 in 10.0 mi SSW 5.8 mph - N/A   Mostly Cloudy
9:10 AM 42.8 °F 37.0 °F 26.6 °F 53% 29.50 in 10.0 mi SW 10.4 mph - N/A   Mostly Cloudy
9:30 AM 44.6 °F 39.7 °F 26.6 °F 49% 29.51 in 10.0 mi SW 9.2 mph - N/A   Overcast
9:50 AM 44.6 °F 40.2 °F 28.4 °F 53% 29.53 in 10.0 mi North 8.1 mph - N/A   Overcast
10:10 AM 44.6 °F 40.2 °F 26.6 °F 49% 29.54 in 10.0 mi NNW 8.1 mph - N/A   Overcast
10:30 AM 44.6 °F 38.4 °F 28.4 °F 53% 29.54 in 10.0 mi NNE 12.7 mph 16.1 mph N/A   Overcast
10:50 AM 41.0 °F 33.1 °F 30.2 °F 65% 29.54 in 10.0 mi NNE 15.0 mph 19.6 mph N/A   Scattered Clouds
11:10 AM 39.2 °F 31.2 °F 30.2 °F 70% 29.54 in 10.0 mi NE 13.8 mph 21.9 mph N/A   Clear
11:30 AM 37.4 °F 28.2 °F 30.2 °F 75% 29.54 in 10.0 mi NE 16.1 mph 26.5 mph N/A   Clear
11:50 AM 39.2 °F 29.8 °F 30.2 °F 70% 29.55 in 10.0 mi NE 18.4 mph 23.0 mph N/A   Clear
12:10 PM 39.2 °F 29.3 °F 30.2 °F 70% 29.56 in 10.0 mi NNE 20.7 mph 24.2 mph N/A   Clear
12:30 PM 35.6 °F 24.2 °F 28.4 °F 75% 29.56 in 10.0 mi NNE 21.9 mph 29.9 mph N/A   Clear
12:50 PM 33.8 °F 21.3 °F 26.6 °F 75% 29.58 in 10.0 mi North 24.2 mph 29.9 mph N/A   Mostly Cloudy
1:10 PM 30.2 °F 16.5 °F 23.0 °F 75% 29.58 in 10.0 mi North 24.2 mph 31.1 mph N/A   Overcast
1:30 PM 30.2 °F 16.2 °F 23.0 °F 75% 29.58 in 10.0 mi North 25.3 mph 32.2 mph N/A   Overcast
1:50 PM 28.4 °F 13.8 °F 19.4 °F 69% 29.58 in 10.0 mi North 25.3 mph 33.4 mph N/A   Overcast
2:10 PM 28.4 °F 13.5 °F 19.4 °F 69% 29.59 in 10.0 mi North 26.5 mph 35.7 mph N/A   Overcast
2:30 PM 26.6 °F 12.0 °F 17.6 °F 69% 29.58 in 10.0 mi NNE 23.0 mph 28.8 mph N/A   Overcast
2:50 PM 26.6 °F 10.8 °F 17.6 °F 69% 29.60 in 10.0 mi NNE 27.6 mph 33.4 mph N/A   Overcast
3:10 PM 24.8 °F 10.7 °F 17.6 °F 74% 29.61 in 10.0 mi NNE 19.6 mph 33.4 mph N/A   Overcast
3:30 PM 24.8 °F 10.3 °F 17.6 °F 74% 29.62 in 10.0 mi NNE 20.7 mph 28.8 mph N/A   Overcast
3:50 PM 23.0 °F 8.7 °F 15.8 °F 74% 29.62 in 10.0 mi NNE 18.4 mph 28.8 mph N/A   Overcast
4:10 PM 23.0 °F 7.2 °F 15.8 °F 74% 29.64 in 10.0 mi NNE 23.0 mph 28.8 mph N/A   Overcast
4:30 PM 23.0 °F 7.6 °F 15.8 °F 74% 29.65 in 10.0 mi NNE 21.9 mph 28.8 mph N/A   Overcast
4:50 PM 23.0 °F 8.0 °F 15.8 °F 74% 29.66 in 10.0 mi North 20.7 mph 26.5 mph N/A   Overcast
5:10 PM 21.2 °F 6.8 °F 14.0 °F 74% 29.68 in 10.0 mi North 17.3 mph 24.2 mph N/A   Overcast
5:30 PM 21.2 °F 7.8 °F 14.0 °F 74% 29.69 in 10.0 mi North 15.0 mph 25.3 mph N/A   Overcast
5:50 PM 21.2 °F 5.6 °F 12.2 °F 68% 29.72 in 10.0 mi North 20.7 mph 27.6 mph N/A   Overcast
6:10 PM 21.2 °F 6.0 °F 12.2 °F 68% 29.73 in 10.0 mi North 19.6 mph 26.5 mph N/A   Overcast
6:30 PM 21.2 °F 7.8 °F 12.2 °F 68% 29.72 in 10.0 mi NNE 15.0 mph 25.3 mph N/A   Overcast
6:50 PM 21.2 °F 9.5 °F 12.2 °F 68% 29.74 in 10.0 mi North 11.5 mph 21.9 mph N/A   Overcast
7:10 PM 19.4 °F 3.6 °F 12.2 °F 74% 29.73 in 10.0 mi North 19.6 mph 24.2 mph N/A   Overcast
7:30 PM 19.4 °F 5.5 °F 10.4 °F 68% 29.76 in 10.0 mi North 15.0 mph 25.3 mph N/A   Overcast
7:50 PM 19.4 °F 5.5 °F 10.4 °F 68% 29.77 in 10.0 mi North 15.0 mph 19.6 mph N/A   Overcast
8:10 PM 19.4 °F 3.2 °F 10.4 °F 68% 29.77 in 10.0 mi North 20.7 mph 28.8 mph N/A   Overcast
8:30 PM 19.4 °F 7.2 °F 10.4 °F 68% 29.77 in 10.0 mi North 11.5 mph 23.0 mph N/A   Overcast
8:50 PM 19.4 °F 5.5 °F 10.4 °F 68% 29.78 in 10.0 mi North 15.0 mph - N/A   Overcast
9:10 PM 19.4 °F 4.1 °F 10.4 °F 68% 29.78 in 7.0 mi North 18.4 mph 24.2 mph N/A Snow Light Snow
9:30 PM 17.6 °F 2.2 °F 10.4 °F 73% 29.77 in 5.0 mi North 17.3 mph 26.5 mph N/A Snow Light Snow
9:50 PM 17.6 °F 1.7 °F 12.2 °F 79% 29.77 in 4.0 mi North 18.4 mph - N/A Snow Light Snow
10:10 PM 17.6 °F 3.2 °F 10.4 °F 73% 29.76 in 10.0 mi NNE 15.0 mph 20.7 mph N/A Snow Light Snow
10:30 PM 17.6 °F 4.3 °F 10.4 °F 73% 29.77 in 10.0 mi North 12.7 mph 23.0 mph N/A   Overcast
10:50 PM 17.6 °F 2.2 °F 8.6 °F 68% 29.76 in 10.0 mi North 17.3 mph 24.2 mph N/A   Overcast
11:10 PM 17.6 °F 2.7 °F 8.6 °F 68% 29.78 in 10.0 mi North 16.1 mph 25.3 mph N/A Snow Light Snow
11:30 PM 17.6 °F 2.2 °F 10.4 °F 73% 29.78 in 5.0 mi North 17.3 mph 21.9 mph N/A Snow Light Snow
11:50 PM 15.8 °F 1.4 °F 8.6 °F 73% 29.77 in 10.0 mi North 13.8 mph 21.9 mph N/A Snow Light Snow